This is the latest recevied weather packets stored in our database for station/object SP6PGH-13. If no packets are shown the sender has not sent any weather packets the latest 10 day(s).
| Time | Temp. | Humidity | Pressure | Rain* | Wind** | Luminosity | Snow |
|---|---|---|---|---|---|---|---|
| 1788466199 | 20° C | 65% | 1002.2 hPa | - | - | - | - |
| 1788465298 | 19.44° C | 65% | 1002.1 hPa | - | - | - | - |
| 1788464397 | 18.89° C | 66% | 1002.1 hPa | - | - | - | - |
| 1788463496 | 17.78° C | 71% | 1002 hPa | - | - | - | - |
| 1788462595 | 17.78° C | 72% | 1002 hPa | - | - | - | - |
| 1788461694 | 17.78° C | 71% | 1002.1 hPa | - | - | - | - |
| 1788460793 | 18.33° C | 70% | 1002 hPa | - | - | - | - |
| 1788459892 | 18.89° C | 69% | 1002 hPa | - | - | - | - |
| 1788458991 | 18.89° C | 68% | 1002.1 hPa | - | - | - | - |
| 1788458090 | 20° C | 66% | 1002.2 hPa | - | - | - | - |
| 1788457188 | 20° C | 63% | 1002.3 hPa | - | - | 1 W/m² | - |
| 1788456288 | 20° C | 62% | 1002.4 hPa | - | - | 3 W/m² | - |
| 1788455387 | 20.56° C | 58% | 1002.5 hPa | - | - | 10 W/m² | - |
| 1788454486 | 20.56° C | 57% | 1002.5 hPa | - | - | 17 W/m² | - |
| 1788453585 | 21.11° C | 55% | 1002.4 hPa | - | - | 18 W/m² | - |
| 1788452684 | 22.22° C | 51% | 1002.4 hPa | - | - | 50 W/m² | - |
| 1788451802 | 22.22° C | 51% | 1002.5 hPa | - | - | 59 W/m² | - |
| 1788450882 | 22.22° C | 52% | 1002.6 hPa | - | - | 104 W/m² | - |
| 1788449980 | 22.78° C | 50% | 1002.6 hPa | - | - | 82 W/m² | - |
| 1788449079 | 23.33° C | 51% | 1002.6 hPa | - | - | 229 W/m² | - |
| 1788448178 | 23.89° C | 48% | 1002.8 hPa | - | - | 240 W/m² | - |
| 1788447277 | 22.78° C | 52% | 1002.9 hPa | - | - | 178 W/m² | - |
| 1788446376 | 22.78° C | 50% | 1002.9 hPa | - | - | 174 W/m² | - |
| 1788445475 | 22.78° C | 51% | 1003.1 hPa | - | - | 170 W/m² | - |
| 1788444574 | 22.78° C | 50% | 1003.3 hPa | - | - | 197 W/m² | - |
* Rain since midnight (hover to see other rain measurements)
** Current wind speed in m/s (hover to see current wind gust speed)